DLH205 EDDH-EDDF
Flight info
| Callsign | DLH205 |
|---|---|
| Flight time | 1h 0m |
| Altitude | 25000 |
| Route | AMLUH2C/05 AMLUH M852 DENIX DCT RIMET T157 KERAX KERAX5A |
| Aircraft | A20N/M-SDE2E3FGHIRWXY/SB1 |
Departure
| Time | 2026-05-06 14:58 |
|---|---|
| Airport | Hamburg Helmut Schmidt Airport (EDDH) |
Arrival
| Time | 2026-05-06 15:58 |
|---|---|
| Airport | Frankfurt Main Airport (EDDF) |
| Time | Latitude | Longitude | Altitude | Speed | Heading |
|---|---|---|---|---|---|
| 2026-05-06 14:08 | 53.62926 | 10.00289 | 50 ft | 0 kts | 121° |
| 2026-05-06 14:49 | 53.62928 | 10.00284 | 50 ft | 1 kts | 121° |
| 2026-05-06 14:49 | 53.62935 | 10.00266 | 46 ft | 2 kts | 121° |
| 2026-05-06 14:49 | 53.62940 | 10.00251 | 45 ft | 2 kts | 121° |
| 2026-05-06 14:49 | 53.62949 | 10.00227 | 47 ft | 2 kts | 121° |
| 2026-05-06 14:50 | 53.62958 | 10.00202 | 47 ft | 2 kts | 119° |
| 2026-05-06 14:50 | 53.62967 | 10.00179 | 50 ft | 2 kts | 143° |
| 2026-05-06 14:50 | 53.62981 | 10.00169 | 49 ft | 2 kts | 197° |
| 2026-05-06 14:50 | 53.62988 | 10.00173 | 50 ft | 0 kts | 211° |
| 2026-05-06 14:53 | 53.62941 | 10.00125 | 50 ft | 12 kts | 211° |
| 2026-05-06 14:53 | 53.62892 | 10.00073 | 50 ft | 0 kts | 214° |
| 2026-05-06 14:53 | 53.62886 | 10.00065 | 50 ft | 1 kts | 214° |
| 2026-05-06 14:53 | 53.62870 | 10.00036 | 50 ft | 3 kts | 231° |
| 2026-05-06 14:54 | 53.62855 | 9.99996 | 50 ft | 5 kts | 240° |
| 2026-05-06 14:54 | 53.62841 | 9.99949 | 50 ft | 0 kts | 245° |
| 2026-05-06 14:56 | 53.62841 | 9.99948 | 50 ft | 1 kts | 245° |
| 2026-05-06 14:56 | 53.62832 | 9.99917 | 48 ft | 7 kts | 245° |
| 2026-05-06 14:56 | 53.62813 | 9.99846 | 49 ft | 2 kts | 252° |
| 2026-05-06 14:56 | 53.62826 | 9.99785 | 45 ft | 7 kts | 307° |
| 2026-05-06 14:57 | 53.62837 | 9.99767 | 48 ft | 0 kts | 331° |
| 2026-05-06 14:57 | 53.62842 | 9.99763 | 48 ft | 3 kts | 332° |
| 2026-05-06 14:57 | 53.62884 | 9.99729 | 49 ft | 17 kts | 334° |
| 2026-05-06 14:57 | 53.63192 | 9.99472 | 49 ft | 83 kts | 334° |
| 2026-05-06 14:58 | 53.63888 | 9.98885 | 50 ft | 135 kts | 337° |
| 2026-05-06 14:58 | 53.64759 | 9.98105 | 440 ft | 143 kts | 335° |
| 2026-05-06 14:58 | 53.65664 | 9.97279 | 949 ft | 156 kts | 336° |
| 2026-05-06 14:58 | 53.66671 | 9.96385 | 1352 ft | 173 kts | 336° |
| 2026-05-06 14:59 | 53.67794 | 9.95349 | 1764 ft | 195 kts | 335° |
| 2026-05-06 14:59 | 53.69102 | 9.94555 | 2343 ft | 204 kts | 358° |
| 2026-05-06 14:59 | 53.70523 | 9.94568 | 3309 ft | 204 kts | 7° |
| 2026-05-06 14:59 | 53.71984 | 9.94671 | 4258 ft | 212 kts | 10° |
| 2026-05-06 15:00 | 53.73329 | 9.95552 | 4976 ft | 213 kts | 43° |
| 2026-05-06 15:00 | 53.74128 | 9.97604 | 5957 ft | 212 kts | 75° |
| 2026-05-06 15:00 | 53.74306 | 10.00105 | 6871 ft | 217 kts | 86° |
| 2026-05-06 15:00 | 53.74283 | 10.02659 | 7818 ft | 223 kts | 98° |
| 2026-05-06 15:01 | 53.73755 | 10.05178 | 8764 ft | 232 kts | 119° |
| 2026-05-06 15:01 | 53.72896 | 10.07573 | 9509 ft | 252 kts | 120° |
| 2026-05-06 15:01 | 53.71947 | 10.10302 | 9801 ft | 282 kts | 119° |
| 2026-05-06 15:01 | 53.70960 | 10.13210 | 9874 ft | 285 kts | 119° |
| 2026-05-06 15:02 | 53.69977 | 10.16142 | 9887 ft | 285 kts | 118° |
| 2026-05-06 15:02 | 53.68840 | 10.18982 | 9891 ft | 315 kts | 133° |
| 2026-05-06 15:02 | 53.66991 | 10.21185 | 9892 ft | 329 kts | 156° |
| 2026-05-06 15:02 | 53.64796 | 10.22293 | 9971 ft | 332 kts | 164° |
| 2026-05-06 15:03 | 53.62563 | 10.23279 | 10531 ft | 335 kts | 164° |
| 2026-05-06 15:03 | 53.60316 | 10.24276 | 11720 ft | 329 kts | 164° |
| 2026-05-06 15:03 | 53.58091 | 10.25279 | 12673 ft | 333 kts | 165° |
| 2026-05-06 15:03 | 53.55826 | 10.26314 | 13542 ft | 338 kts | 165° |
| 2026-05-06 15:04 | 53.53535 | 10.27367 | 14358 ft | 342 kts | 165° |
| 2026-05-06 15:04 | 53.51245 | 10.28422 | 15120 ft | 346 kts | 165° |
| 2026-05-06 15:04 | 53.48898 | 10.29500 | 15859 ft | 351 kts | 166° |
| 2026-05-06 15:04 | 53.46552 | 10.30576 | 16644 ft | 354 kts | 166° |
| 2026-05-06 15:05 | 53.44135 | 10.31682 | 17391 ft | 359 kts | 166° |
| 2026-05-06 15:05 | 53.41731 | 10.32779 | 18120 ft | 363 kts | 167° |
| 2026-05-06 15:05 | 53.39269 | 10.33892 | 18764 ft | 367 kts | 167° |
| 2026-05-06 15:05 | 53.36774 | 10.35013 | 19392 ft | 371 kts | 167° |
| 2026-05-06 15:06 | 53.34282 | 10.36130 | 20005 ft | 376 kts | 167° |
| 2026-05-06 15:06 | 53.31740 | 10.37269 | 20622 ft | 380 kts | 166° |
| 2026-05-06 15:06 | 53.29156 | 10.38427 | 21240 ft | 384 kts | 166° |
| 2026-05-06 15:06 | 53.26584 | 10.39578 | 21824 ft | 389 kts | 166° |
| 2026-05-06 15:07 | 53.23966 | 10.40749 | 22462 ft | 392 kts | 166° |
| 2026-05-06 15:07 | 53.21311 | 10.41935 | 23101 ft | 396 kts | 166° |
| 2026-05-06 15:07 | 53.18632 | 10.43130 | 23679 ft | 399 kts | 166° |
| 2026-05-06 15:07 | 53.15961 | 10.44297 | 24250 ft | 401 kts | 167° |
| 2026-05-06 15:08 | 53.13198 | 10.45096 | 24655 ft | 403 kts | 174° |
| 2026-05-06 15:08 | 53.10385 | 10.45332 | 24806 ft | 404 kts | 181° |
| 2026-05-06 15:08 | 53.07576 | 10.45029 | 24829 ft | 404 kts | 185° |
| 2026-05-06 15:08 | 53.04776 | 10.44608 | 24831 ft | 403 kts | 185° |
| 2026-05-06 15:09 | 53.02014 | 10.44206 | 24830 ft | 403 kts | 185° |
| 2026-05-06 15:09 | 52.99201 | 10.43810 | 24827 ft | 403 kts | 184° |
| 2026-05-06 15:09 | 52.96423 | 10.43427 | 24830 ft | 403 kts | 184° |
| 2026-05-06 15:09 | 52.93620 | 10.43044 | 24828 ft | 403 kts | 185° |
| 2026-05-06 15:10 | 52.90812 | 10.42662 | 24828 ft | 402 kts | 185° |
| 2026-05-06 15:10 | 52.88044 | 10.42285 | 24827 ft | 402 kts | 185° |
| 2026-05-06 15:10 | 52.85243 | 10.41904 | 24825 ft | 402 kts | 185° |
| 2026-05-06 15:10 | 52.82453 | 10.41525 | 24825 ft | 402 kts | 185° |
| 2026-05-06 15:11 | 52.79696 | 10.41151 | 24826 ft | 402 kts | 185° |
| 2026-05-06 15:11 | 52.76892 | 10.40770 | 24825 ft | 402 kts | 185° |
| 2026-05-06 15:11 | 52.74135 | 10.40397 | 24817 ft | 401 kts | 185° |
| 2026-05-06 15:11 | 52.71328 | 10.40018 | 24819 ft | 401 kts | 185° |
| 2026-05-06 15:12 | 52.68564 | 10.39645 | 24820 ft | 401 kts | 185° |
| 2026-05-06 15:12 | 52.65852 | 10.39280 | 24820 ft | 401 kts | 185° |
| 2026-05-06 15:12 | 52.63054 | 10.38904 | 24820 ft | 401 kts | 185° |
| 2026-05-06 15:12 | 52.60270 | 10.38531 | 24824 ft | 400 kts | 185° |
| 2026-05-06 15:13 | 52.57520 | 10.38162 | 24819 ft | 400 kts | 185° |
| 2026-05-06 15:13 | 52.54738 | 10.37790 | 24822 ft | 400 kts | 186° |
| 2026-05-06 15:13 | 52.51990 | 10.37423 | 24816 ft | 399 kts | 186° |
| 2026-05-06 15:13 | 52.49204 | 10.37051 | 24805 ft | 399 kts | 186° |
| 2026-05-06 15:14 | 52.46430 | 10.36681 | 24807 ft | 398 kts | 186° |
| 2026-05-06 15:14 | 52.43684 | 10.36314 | 24802 ft | 398 kts | 186° |
| 2026-05-06 15:14 | 52.40907 | 10.35944 | 24799 ft | 398 kts | 186° |
| 2026-05-06 15:14 | 52.38166 | 10.35579 | 24800 ft | 397 kts | 186° |
| 2026-05-06 15:15 | 52.35399 | 10.35211 | 24799 ft | 397 kts | 186° |
| 2026-05-06 15:15 | 52.32671 | 10.34849 | 24800 ft | 397 kts | 186° |
| 2026-05-06 15:15 | 52.29899 | 10.34481 | 24800 ft | 396 kts | 186° |
| 2026-05-06 15:15 | 52.27171 | 10.34120 | 24802 ft | 396 kts | 186° |
| 2026-05-06 15:16 | 52.24420 | 10.33755 | 24800 ft | 396 kts | 186° |
| 2026-05-06 15:16 | 52.21665 | 10.33391 | 24800 ft | 395 kts | 186° |
| 2026-05-06 15:16 | 52.18950 | 10.33033 | 24800 ft | 395 kts | 186° |
| 2026-05-06 15:16 | 52.16201 | 10.32670 | 24798 ft | 394 kts | 186° |
| 2026-05-06 15:17 | 52.13478 | 10.32312 | 24797 ft | 394 kts | 187° |
| 2026-05-06 15:17 | 52.10734 | 10.31951 | 24793 ft | 393 kts | 187° |
| 2026-05-06 15:17 | 52.08030 | 10.31596 | 24795 ft | 393 kts | 187° |
| 2026-05-06 15:17 | 52.05280 | 10.31235 | 24789 ft | 392 kts | 187° |
| 2026-05-06 15:18 | 52.02599 | 10.30884 | 24788 ft | 392 kts | 187° |
| 2026-05-06 15:18 | 51.99838 | 10.30522 | 24783 ft | 392 kts | 187° |
| 2026-05-06 15:18 | 51.97149 | 10.30170 | 24783 ft | 391 kts | 187° |
| 2026-05-06 15:18 | 51.94429 | 10.29815 | 24786 ft | 390 kts | 187° |
| 2026-05-06 15:19 | 51.91750 | 10.29465 | 24784 ft | 390 kts | 187° |
| 2026-05-06 15:19 | 51.89029 | 10.29110 | 24781 ft | 390 kts | 187° |
| 2026-05-06 15:19 | 51.86309 | 10.28756 | 24781 ft | 390 kts | 187° |
| 2026-05-06 15:19 | 51.83618 | 10.28408 | 24783 ft | 389 kts | 187° |
| 2026-05-06 15:20 | 51.80909 | 10.28056 | 24782 ft | 389 kts | 187° |
| 2026-05-06 15:20 | 51.78230 | 10.27708 | 24782 ft | 389 kts | 187° |
| 2026-05-06 15:20 | 51.75545 | 10.27359 | 24774 ft | 388 kts | 187° |
| 2026-05-06 15:20 | 51.72840 | 10.27009 | 24777 ft | 388 kts | 187° |
| 2026-05-06 15:21 | 51.70143 | 10.26661 | 24778 ft | 388 kts | 187° |
| 2026-05-06 15:21 | 51.67449 | 10.26313 | 24776 ft | 388 kts | 187° |
| 2026-05-06 15:21 | 51.64769 | 10.25968 | 24775 ft | 388 kts | 187° |
| 2026-05-06 15:21 | 51.62059 | 10.25619 | 24774 ft | 388 kts | 187° |
| 2026-05-06 15:22 | 51.59380 | 10.25274 | 24773 ft | 389 kts | 187° |
| 2026-05-06 15:22 | 51.56674 | 10.24926 | 24773 ft | 389 kts | 187° |
| 2026-05-06 15:22 | 51.53967 | 10.24579 | 24771 ft | 389 kts | 187° |
| 2026-05-06 15:22 | 51.51292 | 10.24237 | 24770 ft | 389 kts | 187° |
| 2026-05-06 15:23 | 51.48588 | 10.23891 | 24765 ft | 389 kts | 187° |
| 2026-05-06 15:23 | 51.45903 | 10.23548 | 24548 ft | 386 kts | 187° |
| 2026-05-06 15:23 | 51.43233 | 10.23208 | 24066 ft | 385 kts | 188° |
| 2026-05-06 15:23 | 51.40548 | 10.22865 | 23468 ft | 383 kts | 188° |
| 2026-05-06 15:24 | 51.37926 | 10.22531 | 22784 ft | 381 kts | 188° |
| 2026-05-06 15:24 | 51.35280 | 10.22193 | 22098 ft | 378 kts | 187° |
| 2026-05-06 15:24 | 51.32656 | 10.21919 | 21452 ft | 376 kts | 184° |
| 2026-05-06 15:24 | 51.30072 | 10.21871 | 20828 ft | 373 kts | 184° |
| 2026-05-06 15:25 | 51.27481 | 10.21823 | 20209 ft | 370 kts | 183° |
| 2026-05-06 15:25 | 51.24883 | 10.21772 | 19593 ft | 368 kts | 183° |
| 2026-05-06 15:25 | 51.22363 | 10.21720 | 19025 ft | 365 kts | 183° |
| 2026-05-06 15:25 | 51.19825 | 10.21667 | 18455 ft | 362 kts | 183° |
| 2026-05-06 15:26 | 51.17299 | 10.21612 | 17837 ft | 360 kts | 182° |
| 2026-05-06 15:26 | 51.14835 | 10.21561 | 17235 ft | 357 kts | 182° |
| 2026-05-06 15:26 | 51.12371 | 10.21513 | 16867 ft | 351 kts | 182° |
| 2026-05-06 15:26 | 51.09898 | 10.21468 | 16763 ft | 357 kts | 182° |
| 2026-05-06 15:27 | 51.07407 | 10.21423 | 16758 ft | 356 kts | 182° |
| 2026-05-06 15:27 | 51.04920 | 10.21377 | 16756 ft | 368 kts | 182° |
| 2026-05-06 15:27 | 51.02334 | 10.21330 | 16760 ft | 369 kts | 182° |
| 2026-05-06 15:27 | 50.99792 | 10.21286 | 16754 ft | 368 kts | 182° |
| 2026-05-06 15:28 | 50.97220 | 10.21242 | 16750 ft | 369 kts | 182° |
| 2026-05-06 15:28 | 50.94654 | 10.21196 | 16759 ft | 369 kts | 182° |
| 2026-05-06 15:28 | 50.92097 | 10.21150 | 16758 ft | 369 kts | 182° |
| 2026-05-06 15:28 | 50.89510 | 10.21104 | 16752 ft | 369 kts | 182° |
| 2026-05-06 15:29 | 50.86951 | 10.21059 | 16752 ft | 369 kts | 182° |
| 2026-05-06 15:29 | 50.84361 | 10.20992 | 16754 ft | 369 kts | 185° |
| 2026-05-06 15:29 | 50.81897 | 10.20189 | 16705 ft | 360 kts | 202° |
| 2026-05-06 15:29 | 50.79751 | 10.18306 | 16524 ft | 351 kts | 218° |
| 2026-05-06 15:30 | 50.78070 | 10.15557 | 15987 ft | 349 kts | 234° |
| 2026-05-06 15:30 | 50.76899 | 10.12172 | 15387 ft | 348 kts | 243° |
| 2026-05-06 15:30 | 50.75841 | 10.08775 | 14935 ft | 343 kts | 243° |
| 2026-05-06 15:30 | 50.74786 | 10.05420 | 14788 ft | 345 kts | 243° |
| 2026-05-06 15:31 | 50.73707 | 10.02016 | 14742 ft | 346 kts | 243° |
| 2026-05-06 15:31 | 50.72630 | 9.98638 | 14589 ft | 343 kts | 242° |
| 2026-05-06 15:31 | 50.71558 | 9.95289 | 14190 ft | 341 kts | 242° |
| 2026-05-06 15:32 | 50.69425 | 9.88647 | 13123 ft | 337 kts | 242° |
| 2026-05-06 15:32 | 50.68383 | 9.85409 | 12833 ft | 330 kts | 242° |
| 2026-05-06 15:32 | 50.67332 | 9.82157 | 12757 ft | 336 kts | 242° |
| 2026-05-06 15:32 | 50.66225 | 9.78937 | 12723 ft | 334 kts | 240° |
| 2026-05-06 15:33 | 50.65465 | 9.76810 | 12528 ft | 333 kts | 240° |
| 2026-05-06 15:33 | 50.64315 | 9.73625 | 12091 ft | 331 kts | 239° |
| 2026-05-06 15:33 | 50.62820 | 9.69469 | 11380 ft | 328 kts | 240° |
| 2026-05-06 15:33 | 50.62072 | 9.67380 | 11026 ft | 326 kts | 240° |
| 2026-05-06 15:34 | 50.60962 | 9.64274 | 10691 ft | 322 kts | 240° |
| 2026-05-06 15:34 | 50.59877 | 9.61232 | 10248 ft | 322 kts | 240° |
| 2026-05-06 15:34 | 50.58778 | 9.58151 | 9894 ft | 317 kts | 240° |
| 2026-05-06 15:34 | 50.57686 | 9.55143 | 9778 ft | 320 kts | 237° |
| 2026-05-06 15:35 | 50.56401 | 9.52291 | 9764 ft | 316 kts | 232° |
| 2026-05-06 15:35 | 50.55096 | 9.49648 | 9743 ft | 298 kts | 231° |
| 2026-05-06 15:35 | 50.53837 | 9.47136 | 9764 ft | 280 kts | 231° |
| 2026-05-06 15:35 | 50.52676 | 9.44794 | 9769 ft | 268 kts | 232° |
| 2026-05-06 15:36 | 50.51523 | 9.42438 | 9745 ft | 278 kts | 232° |
| 2026-05-06 15:36 | 50.50350 | 9.40020 | 9751 ft | 278 kts | 232° |
| 2026-05-06 15:36 | 50.49195 | 9.37627 | 9760 ft | 274 kts | 232° |
| 2026-05-06 15:36 | 50.48056 | 9.35264 | 9749 ft | 273 kts | 232° |
| 2026-05-06 15:37 | 50.46888 | 9.32844 | 9753 ft | 276 kts | 232° |
| 2026-05-06 15:37 | 50.45727 | 9.30441 | 9756 ft | 276 kts | 232° |
| 2026-05-06 15:37 | 50.44580 | 9.28067 | 9770 ft | 275 kts | 232° |
| 2026-05-06 15:37 | 50.43414 | 9.25659 | 9762 ft | 276 kts | 232° |
| 2026-05-06 15:38 | 50.42252 | 9.23261 | 9766 ft | 277 kts | 232° |
| 2026-05-06 15:38 | 50.41088 | 9.20860 | 9772 ft | 276 kts | 232° |
| 2026-05-06 15:38 | 50.39961 | 9.18459 | 9774 ft | 275 kts | 237° |
| 2026-05-06 15:38 | 50.38884 | 9.15956 | 9755 ft | 275 kts | 226° |
| 2026-05-06 15:39 | 50.37319 | 9.14316 | 9532 ft | 275 kts | 201° |
| 2026-05-06 15:39 | 50.35451 | 9.13974 | 9296 ft | 272 kts | 174° |
| 2026-05-06 15:39 | 50.33724 | 9.15024 | 9184 ft | 265 kts | 146° |
| 2026-05-06 15:39 | 50.32557 | 9.17165 | 9045 ft | 260 kts | 117° |
| 2026-05-06 15:40 | 50.32027 | 9.19881 | 8757 ft | 258 kts | 107° |
| 2026-05-06 15:40 | 50.31555 | 9.22551 | 8430 ft | 256 kts | 109° |
| 2026-05-06 15:40 | 50.31038 | 9.25210 | 8243 ft | 247 kts | 104° |
| 2026-05-06 15:40 | 50.31010 | 9.27811 | 8124 ft | 237 kts | 79° |
| 2026-05-06 15:41 | 50.31512 | 9.30169 | 8085 ft | 221 kts | 71° |
| 2026-05-06 15:41 | 50.32020 | 9.32344 | 7935 ft | 206 kts | 71° |
| 2026-05-06 15:41 | 50.32416 | 9.34453 | 7621 ft | 201 kts | 89° |
| 2026-05-06 15:41 | 50.32096 | 9.36516 | 7255 ft | 193 kts | 127° |
| 2026-05-06 15:42 | 50.31090 | 9.37749 | 6967 ft | 179 kts | 164° |
| 2026-05-06 15:42 | 50.29926 | 9.38332 | 6690 ft | 177 kts | 167° |
| 2026-05-06 15:42 | 50.28725 | 9.38900 | 6183 ft | 187 kts | 166° |
| 2026-05-06 15:42 | 50.27436 | 9.39543 | 5540 ft | 200 kts | 165° |
| 2026-05-06 15:43 | 50.26101 | 9.40253 | 5117 ft | 208 kts | 164° |
| 2026-05-06 15:43 | 50.24731 | 9.40747 | 4993 ft | 191 kts | 186° |
| 2026-05-06 15:43 | 50.23613 | 9.40182 | 4986 ft | 155 kts | 216° |
| 2026-05-06 15:43 | 50.22849 | 9.38947 | 4994 ft | 161 kts | 239° |
| 2026-05-06 15:44 | 50.22442 | 9.37343 | 4987 ft | 161 kts | 251° |
| 2026-05-06 15:44 | 50.22071 | 9.35677 | 4999 ft | 162 kts | 250° |
| 2026-05-06 15:44 | 50.21698 | 9.34043 | 4994 ft | 156 kts | 250° |
| 2026-05-06 15:44 | 50.21326 | 9.32441 | 4999 ft | 160 kts | 249° |
| 2026-05-06 15:45 | 50.20947 | 9.30808 | 4990 ft | 158 kts | 249° |
| 2026-05-06 15:45 | 50.20566 | 9.29168 | 4997 ft | 160 kts | 249° |
| 2026-05-06 15:45 | 50.20201 | 9.27595 | 4986 ft | 150 kts | 249° |
| 2026-05-06 15:45 | 50.19820 | 9.25962 | 4999 ft | 170 kts | 249° |
| 2026-05-06 15:46 | 50.19422 | 9.24243 | 4995 ft | 167 kts | 249° |
| 2026-05-06 15:46 | 50.19020 | 9.22502 | 4997 ft | 170 kts | 249° |
| 2026-05-06 15:46 | 50.18619 | 9.20774 | 4996 ft | 170 kts | 249° |
| 2026-05-06 15:46 | 50.18262 | 9.19018 | 4997 ft | 170 kts | 257° |
| 2026-05-06 15:47 | 50.18044 | 9.17230 | 5001 ft | 169 kts | 255° |
| 2026-05-06 15:47 | 50.17728 | 9.15452 | 5001 ft | 171 kts | 250° |
| 2026-05-06 15:47 | 50.17325 | 9.13699 | 4996 ft | 168 kts | 248° |
| 2026-05-06 15:47 | 50.16907 | 9.11991 | 5000 ft | 170 kts | 248° |
| 2026-05-06 15:48 | 50.16485 | 9.10274 | 5000 ft | 170 kts | 248° |
| 2026-05-06 15:48 | 50.16064 | 9.08548 | 4999 ft | 171 kts | 248° |
| 2026-05-06 15:48 | 50.15646 | 9.06833 | 4994 ft | 160 kts | 248° |
| 2026-05-06 15:48 | 50.15282 | 9.05331 | 4997 ft | 141 kts | 248° |
| 2026-05-06 15:49 | 50.14936 | 9.03914 | 5008 ft | 140 kts | 248° |
| 2026-05-06 15:49 | 50.14587 | 9.02482 | 5006 ft | 140 kts | 248° |
| 2026-05-06 15:49 | 50.14247 | 9.01083 | 5006 ft | 138 kts | 248° |
| 2026-05-06 15:49 | 50.13915 | 8.99720 | 4967 ft | 128 kts | 248° |
| 2026-05-06 15:50 | 50.13609 | 8.98462 | 4880 ft | 123 kts | 248° |
| 2026-05-06 15:50 | 50.13300 | 8.97193 | 4829 ft | 126 kts | 248° |
| 2026-05-06 15:50 | 50.12989 | 8.95911 | 4770 ft | 127 kts | 248° |
| 2026-05-06 15:50 | 50.12680 | 8.94637 | 4698 ft | 124 kts | 248° |
| 2026-05-06 15:51 | 50.12378 | 8.93393 | 4443 ft | 123 kts | 248° |
| 2026-05-06 15:51 | 50.12077 | 8.92151 | 4116 ft | 122 kts | 249° |
| 2026-05-06 15:51 | 50.11779 | 8.90924 | 3919 ft | 120 kts | 248° |
| 2026-05-06 15:51 | 50.11477 | 8.89678 | 3989 ft | 129 kts | 249° |
| 2026-05-06 15:52 | 50.11168 | 8.88401 | 3990 ft | 124 kts | 249° |
| 2026-05-06 15:52 | 50.10864 | 8.87144 | 3989 ft | 124 kts | 248° |
| 2026-05-06 15:52 | 50.10559 | 8.85883 | 3991 ft | 126 kts | 248° |
| 2026-05-06 15:52 | 50.10248 | 8.84596 | 3994 ft | 126 kts | 249° |
| 2026-05-06 15:53 | 50.09944 | 8.83337 | 3992 ft | 124 kts | 249° |
| 2026-05-06 15:53 | 50.09644 | 8.82098 | 3911 ft | 121 kts | 249° |
| 2026-05-06 15:53 | 50.09347 | 8.80868 | 3636 ft | 121 kts | 249° |
| 2026-05-06 15:53 | 50.09058 | 8.79666 | 3383 ft | 116 kts | 250° |
| 2026-05-06 15:54 | 50.08776 | 8.78444 | 3018 ft | 123 kts | 249° |
| 2026-05-06 15:54 | 50.08465 | 8.77213 | 2709 ft | 121 kts | 250° |
| 2026-05-06 15:54 | 50.08175 | 8.76006 | 2407 ft | 119 kts | 252° |
| 2026-05-06 15:54 | 50.07881 | 8.74786 | 2197 ft | 119 kts | 251° |
| 2026-05-06 15:55 | 50.07590 | 8.73576 | 2043 ft | 124 kts | 251° |
| 2026-05-06 15:55 | 50.07287 | 8.72318 | 1996 ft | 119 kts | 253° |
| 2026-05-06 15:55 | 50.06995 | 8.71110 | 2006 ft | 121 kts | 251° |
| 2026-05-06 15:55 | 50.06673 | 8.69864 | 2015 ft | 127 kts | 250° |
| 2026-05-06 15:56 | 50.06315 | 8.68594 | 1960 ft | 127 kts | 252° |
| 2026-05-06 15:56 | 50.06081 | 8.67323 | 1993 ft | 122 kts | 253° |
| 2026-05-06 15:56 | 50.05745 | 8.66090 | 1852 ft | 125 kts | 247° |
| 2026-05-06 15:56 | 50.05409 | 8.64876 | 1610 ft | 120 kts | 255° |
| 2026-05-06 15:57 | 50.05210 | 8.63654 | 1497 ft | 120 kts | 255° |
| 2026-05-06 15:57 | 50.04866 | 8.62395 | 1199 ft | 125 kts | 250° |
| 2026-05-06 15:57 | 50.04581 | 8.61118 | 853 ft | 123 kts | 252° |
| 2026-05-06 15:57 | 50.04294 | 8.59909 | 624 ft | 118 kts | 251° |
| 2026-05-06 15:58 | 50.04027 | 8.58757 | 426 ft | 111 kts | 251° |
| 2026-05-06 15:58 | 50.03782 | 8.57692 | 362 ft | 94 kts | 253° |
| 2026-05-06 15:58 | 50.03586 | 8.56873 | 358 ft | 72 kts | 250° |
| 2026-05-06 15:58 | 50.03457 | 8.56342 | 352 ft | 31 kts | 251° |
| 2026-05-06 15:59 | 50.03436 | 8.56101 | 356 ft | 19 kts | 277° |
| 2026-05-06 15:59 | 50.03450 | 8.55940 | 353 ft | 7 kts | 279° |
| 2026-05-06 15:59 | 50.03452 | 8.55916 | 348 ft | 4 kts | 279° |
| 2026-05-06 15:59 | 50.03460 | 8.55851 | 344 ft | 7 kts | 281° |
| 2026-05-06 16:00 | 50.03470 | 8.55768 | 349 ft | 10 kts | 283° |
| 2026-05-06 16:00 | 50.03516 | 8.55700 | 345 ft | 10 kts | 354° |
| 2026-05-06 16:00 | 50.03556 | 8.55747 | 347 ft | 10 kts | 57° |
| 2026-05-06 16:00 | 50.03585 | 8.55864 | 356 ft | 13 kts | 76° |
| 2026-05-06 16:01 | 50.03616 | 8.56006 | 354 ft | 15 kts | 65° |
| 2026-05-06 16:01 | 50.03659 | 8.56168 | 356 ft | 18 kts | 69° |
| 2026-05-06 16:01 | 50.03723 | 8.56434 | 359 ft | 30 kts | 69° |
| 2026-05-06 16:01 | 50.03801 | 8.56758 | 355 ft | 34 kts | 70° |
| 2026-05-06 16:02 | 50.03891 | 8.57130 | 362 ft | 37 kts | 70° |
| 2026-05-06 16:02 | 50.03980 | 8.57504 | 364 ft | 37 kts | 70° |
| 2026-05-06 16:02 | 50.04068 | 8.57885 | 370 ft | 38 kts | 72° |
| 2026-05-06 16:02 | 50.04159 | 8.58257 | 371 ft | 36 kts | 70° |
| 2026-05-06 16:03 | 50.04240 | 8.58593 | 369 ft | 33 kts | 69° |
| 2026-05-06 16:03 | 50.04318 | 8.58910 | 374 ft | 29 kts | 70° |
| 2026-05-06 16:03 | 50.04382 | 8.59188 | 376 ft | 23 kts | 70° |
| 2026-05-06 16:03 | 50.04427 | 8.59377 | 375 ft | 8 kts | 68° |
| 2026-05-06 16:04 | 50.04438 | 8.59418 | 375 ft | 4 kts | 66° |
| 2026-05-06 16:04 | 50.04486 | 8.59463 | 374 ft | 12 kts | 23° |
| 2026-05-06 16:04 | 50.04561 | 8.59468 | 373 ft | 0 kts | 358° |
| 2026-05-06 16:05 | 50.04575 | 8.59466 | 373 ft | 1 kts | 356° |
| 2026-05-06 16:06 | 50.04653 | 8.59459 | 372 ft | 17 kts | 356° |
| 2026-05-06 16:06 | 50.04749 | 8.59419 | 372 ft | 4 kts | 344° |
| 2026-05-06 16:06 | 50.04776 | 8.59401 | 372 ft | 0 kts | 337° |
| 2026-05-06 16:07 | 50.04789 | 8.59393 | 372 ft | 6 kts | 337° |
| 2026-05-06 16:07 | 50.04834 | 8.59345 | 371 ft | 8 kts | 301° |
| 2026-05-06 16:08 | 50.04869 | 8.59298 | 367 ft | 5 kts | 326° |
| 2026-05-06 16:08 | 50.04906 | 8.59269 | 368 ft | 5 kts | 338° |
| 2026-05-06 16:08 | 50.04926 | 8.59258 | 367 ft | 2 kts | 340° |
| 2026-05-06 16:08 | 50.04930 | 8.59256 | 366 ft | 0 kts | 339° |